Time;durP1;ratioP1;P1;durP2;ratioP2;P2;SDS_P1;SDS_P2;PMS_P1;PMS_P2;Temp;Humidity;BMP_temperature;BMP_pressure;BME280_temperature;BME280_humidity;BME280_pressure;Samples;Min_cycle;Max_cycle;Signal;HPM_P1;HPM_P2
2022/12/20 00:01:46;;;;;;;;;;;;;;;;;;4961552;28;1986;-71
2022/12/20 00:04:12;;;;;;;;;;;;;;;;;;4953748;28;1105;-73
2022/12/20 00:06:40;;;;;;;;;;;;;;;;;;4954559;28;1152;-72
2022/12/20 00:09:07;;;;;;;;;;;;;;;;;;4956700;28;1446;-72
2022/12/20 00:11:33;;;;;;;;;;;;;;;;;;4972809;28;1125;-72
2022/12/20 00:13:59;;;;;;;;;;;;;;;;;;4973286;28;1130;-71
2022/12/20 00:16:27;;;;;;;;;;;;;;;;;;4957154;29;1233;-72
2022/12/20 00:18:54;;;;;;;;;;;;;;;;;;4973003;28;1415;-73
2022/12/20 00:21:21;;;;;;;;;;;;;;;;;;4972428;28;1910;-72
2022/12/20 00:23:47;;;;;;;;;;;;;;;;;;4973239;28;1129;-71
2022/12/20 00:26:14;;;;;;;;;;;;;;;;;;4958255;29;835;-73
2022/12/20 00:28:42;;;;;;;;;;;;;;;;;;4973230;28;1372;-73
2022/12/20 00:31:09;;;;;;;;;;;;;;;;;;4971049;28;1465;-72
2022/12/20 00:33:37;;;;;;;;;;;;;;;;;;4966029;28;1153;-72
2022/12/20 00:36:05;;;;;;;;;;;;;;;;;;4958365;29;888;-72
2022/12/20 00:38:31;;;;;;;;;;;;;;;;;;4972614;28;1440;-73
2022/12/20 00:40:59;;;;;;;;;;;;;;;;;;4973008;28;1918;-72
2022/12/20 00:43:26;;;;;;;;;;;;;;;;;;4972166;28;1113;-73
2022/12/20 00:45:52;;;;;;;;;;;;;;;;;;4957069;28;1280;-73
2022/12/20 00:48:18;;;;;;;;;;;;;;;;;;4956294;28;1315;-72
2022/12/20 00:50:46;;;;;;;;;;;;;;;;;;4958066;28;853;-73
2022/12/20 00:53:12;;;;;;;;;;;;;;;;;;4971938;28;1291;-73
2022/12/20 00:55:40;;;;;;;;;;;;;;;;;;4957740;29;776;-72
2022/12/20 00:58:07;;;;;;;;;;;;;;;;;;4972242;28;1256;-73
2022/12/20 01:00:33;;;;;;;;;;;;;;;;;;4956130;29;1977;-73
2022/12/20 01:02:59;;;;;;;;;;;;;;;;;;4944175;29;1133;-73
2022/12/20 01:05:27;;;;;;;;;;;;;;;;;;4925845;29;1373;-72
2022/12/20 01:07:55;;;;;;;;;;;;;;;;;;4929037;29;1405;-73
2022/12/20 01:10:21;;;;;;;;;;;;;;;;;;4959723;28;1249;-72
2022/12/20 01:12:47;;;;;;;;;;;;;;;;;;4942554;28;1368;-72
2022/12/20 01:15:14;;;;;;;;;;;;;;;;;;4942414;29;1241;-73
2022/12/20 01:17:40;;;;;;;;;;;;;;;;;;4948631;28;1420;-73
2022/12/20 01:20:07;;;;;;;;;;;;;;;;;;4926360;29;1924;-73
2022/12/20 01:22:33;;;;;;;;;;;;;;;;;;4925302;29;1213;-73
2022/12/20 01:25:01;;;;;;;;;;;;;;;;;;4957997;28;1234;-73
2022/12/20 01:27:29;;;;;;;;;;;;;;;;;;4936693;29;1308;-72
2022/12/20 01:29:55;;;;;;;;;;;;;;;;;;4936658;29;1319;-72
2022/12/20 01:32:21;;;;;;;;;;;;;;;;;;4946873;29;1280;-72
2022/12/20 01:34:47;;;;;;;;;;;;;;;;;;4955767;29;1393;-73
2022/12/20 01:37:14;;;;;;;;;;;;;;;;;;4928367;29;1305;-72
2022/12/20 01:39:40;;;;;;;;;;;;;;;;;;4935643;29;1381;-72
2022/12/20 01:42:09;;;;;;;;;;;;;;;;;;4934890;29;1906;-71
2022/12/20 01:44:54;;;;;;;;;;;;;;;;;;4933024;29;1327;-72
2022/12/20 01:47:20;;;;;;;;;;;;;;;;;;4917785;29;1139;-72
2022/12/20 01:49:47;;;;;;;;;;;;;;;;;;4931786;29;1232;-71
2022/12/20 01:52:14;;;;;;;;;;;;;;;;;;4916374;29;1065;-75
2022/12/20 01:54:41;;;;;;;;;;;;;;;;;;4915855;29;1119;-72
2022/12/20 01:57:09;;;;;;;;;;;;;;;;;;4915829;29;1317;-72
2022/12/20 01:59:35;;;;;;;;;;;;;;;;;;4915576;29;1409;-72
2022/12/20 02:02:02;;;;;;;;;;;;;;;;;;4940590;29;1922;-71
2022/12/20 02:04:28;;;;;;;;;;;;;;;;;;4978543;28;1273;-72
2022/12/20 02:06:56;;;;;;;;;;;;;;;;;;4967465;28;1154;-72
2022/12/20 02:09:23;;;;;;;;;;;;;;;;;;4968613;28;1314;-72
2022/12/20 02:11:53;;;;;;;;;;;;;;;;;;4941033;29;1755;-71
2022/12/20 02:14:25;;;;;;;;;;;;;;;;;;4938597;29;1198;-70
2022/12/20 02:16:53;;;;;;;;;;;;;;;;;;4948368;29;1124;-71
2022/12/20 02:19:30;;;;;;;;;;;;;;;;;;4955747;28;1400;-72
2022/12/20 02:21:59;;;;;;;;;;;;;;;;;;4970146;28;1910;-71
2022/12/20 02:24:40;;;;;;;;;;;;;;;;;;4970977;28;1185;-71
2022/12/20 02:27:22;;;;;;;;;;;;;;;;;;4971097;28;1328;-71
2022/12/20 02:30:09;;;;;;;;;;;;;;;;;;4955655;28;1409;-71
2022/12/20 02:32:37;;;;;;;;;;;;;;;;;;4961961;28;1553;-73
2022/12/20 02:35:04;;;;;;;;;;;;;;;;;;4955029;29;1179;-72
2022/12/20 02:37:31;;;;;;;;;;;;;;;;;;4954721;29;993;-72
2022/12/20 02:39:57;;;;;;;;;;;;;;;;;;4954777;28;1388;-72
2022/12/20 02:42:24;;;;;;;;;;;;;;;;;;4953784;28;2033;-72
2022/12/20 02:47:37;;;;;;;;;;;;;;;;;;4931502;29;1667;-73
2022/12/20 02:50:04;;;;;;;;;;;;;;;;;;4932490;29;1371;-72
2022/12/20 02:52:31;;;;;;;;;;;;;;;;;;4916789;29;935;-72
2022/12/20 02:54:57;;;;;;;;;;;;;;;;;;4931880;29;1225;-72
2022/12/20 02:57:26;;;;;;;;;;;;;;;;;;4932271;29;1134;-71
2022/12/20 02:59:55;;;;;;;;;;;;;;;;;;4932446;29;1933;-72
2022/12/20 03:02:21;;;;;;;;;;;;;;;;;;4951986;28;1982;-72
2022/12/20 03:04:49;;;;;;;;;;;;;;;;;;4938030;29;1114;-72
2022/12/20 03:07:15;;;;;;;;;;;;;;;;;;4937421;29;1300;-72
2022/12/20 03:09:43;;;;;;;;;;;;;;;;;;4935262;29;1395;-72
2022/12/20 03:12:12;;;;;;;;;;;;;;;;;;4950185;29;1464;-74
2022/12/20 03:14:39;;;;;;;;;;;;;;;;;;4948895;29;1382;-73
2022/12/20 03:17:07;;;;;;;;;;;;;;;;;;4935077;29;1437;-72
2022/12/20 03:19:34;;;;;;;;;;;;;;;;;;4934874;29;1307;-71
2022/12/20 03:22:02;;;;;;;;;;;;;;;;;;4936683;29;1912;-71
2022/12/20 03:24:31;;;;;;;;;;;;;;;;;;4934908;29;1287;-71
2022/12/20 03:26:58;;;;;;;;;;;;;;;;;;4927143;29;1693;-70
2022/12/20 03:29:24;;;;;;;;;;;;;;;;;;4938305;29;1327;-72
2022/12/20 03:31:51;;;;;;;;;;;;;;;;;;4945480;29;990;-71
2022/12/20 03:34:18;;;;;;;;;;;;;;;;;;4953089;28;1223;-72
2022/12/20 03:36:44;;;;;;;;;;;;;;;;;;4953501;28;1130;-73
2022/12/20 03:39:12;;;;;;;;;;;;;;;;;;4953668;28;1365;-72
2022/12/20 03:41:40;;;;;;;;;;;;;;;;;;4968637;28;1973;-73
2022/12/20 03:44:08;;;;;;;;;;;;;;;;;;4969095;28;1198;-73
2022/12/20 03:46:35;;;;;;;;;;;;;;;;;;4953256;29;1399;-73
2022/12/20 03:49:03;;;;;;;;;;;;;;;;;;4953261;28;1372;-73
2022/12/20 03:51:30;;;;;;;;;;;;;;;;;;4952753;28;1036;-74
2022/12/20 03:53:57;;;;;;;;;;;;;;;;;;4953326;29;1388;-73
2022/12/20 03:56:34;;;;;;;;;;;;;;;;;;4953659;29;1226;-73
2022/12/20 03:59:03;;;;;;;;;;;;;;;;;;4953714;28;1347;-73
2022/12/20 04:01:31;;;;;;;;;;;;;;;;;;4947665;29;1984;-73
2022/12/20 04:03:58;;;;;;;;;;;;;;;;;;4950227;28;1200;-74
2022/12/20 04:06:24;;;;;;;;;;;;;;;;;;4969404;28;1204;-73
2022/12/20 04:08:51;;;;;;;;;;;;;;;;;;4969199;28;1436;-74
2022/12/20 04:11:26;;;;;;;;;;;;;;;;;;4952757;29;1471;-73
2022/12/20 04:14:01;;;;;;;;;;;;;;;;;;4953226;29;1635;-74
2022/12/20 04:16:28;;;;;;;;;;;;;;;;;;4969438;28;1172;-73
2022/12/20 04:18:55;;;;;;;;;;;;;;;;;;4954111;28;1295;-73
2022/12/20 04:21:22;;;;;;;;;;;;;;;;;;4968548;28;1978;-73
2022/12/20 04:23:48;;;;;;;;;;;;;;;;;;4952970;29;1276;-73
2022/12/20 04:26:16;;;;;;;;;;;;;;;;;;4969331;28;1256;-73
2022/12/20 04:28:42;;;;;;;;;;;;;;;;;;4952934;28;1338;-72
2022/12/20 04:31:11;;;;;;;;;;;;;;;;;;4950963;28;1528;-73
2022/12/20 04:33:39;;;;;;;;;;;;;;;;;;4962873;28;1177;-74
2022/12/20 04:36:05;;;;;;;;;;;;;;;;;;4953059;29;1577;-72
2022/12/20 04:38:33;;;;;;;;;;;;;;;;;;4953085;28;1290;-73
2022/12/20 04:41:00;;;;;;;;;;;;;;;;;;4952972;28;1914;-73
2022/12/20 04:43:31;;;;;;;;;;;;;;;;;;4968414;28;1216;-73
2022/12/20 04:45:59;;;;;;;;;;;;;;;;;;4953208;28;1480;-73
2022/12/20 04:48:27;;;;;;;;;;;;;;;;;;4952919;28;1369;-73
2022/12/20 04:50:55;;;;;;;;;;;;;;;;;;4953096;28;1433;-73
2022/12/20 04:56:07;;;;;;;;;;;;;;;;;;4956680;29;1353;-74
2022/12/20 04:58:34;;;;;;;;;;;;;;;;;;4972568;28;1372;-72
2022/12/20 05:01:03;;;;;;;;;;;;;;;;;;4971139;28;1980;-71
2022/12/20 05:03:39;;;;;;;;;;;;;;;;;;4966298;28;1380;-73
2022/12/20 05:06:05;;;;;;;;;;;;;;;;;;4972566;28;1173;-72
2022/12/20 05:08:32;;;;;;;;;;;;;;;;;;4956472;28;1476;-72
2022/12/20 05:10:59;;;;;;;;;;;;;;;;;;4972554;28;1373;-71
2022/12/20 05:13:25;;;;;;;;;;;;;;;;;;4971653;28;1284;-72
2022/12/20 05:15:52;;;;;;;;;;;;;;;;;;4957488;29;781;-71
2022/12/20 05:18:23;;;;;;;;;;;;;;;;;;4972349;28;1425;-73
2022/12/20 05:26:30;;;;;;;;;;;;;;;;;;4958517;28;941;-72
2022/12/20 05:28:56;;;;;;;;;;;;;;;;;;4937172;29;1400;-70
2022/12/20 05:31:25;;;;;;;;;;;;;;;;;;4959767;28;1634;-73
2022/12/20 05:33:51;;;;;;;;;;;;;;;;;;4935727;29;1415;-71
2022/12/20 05:36:19;;;;;;;;;;;;;;;;;;4971632;28;1191;-70
2022/12/20 05:38:47;;;;;;;;;;;;;;;;;;4961733;28;1546;-70
2022/12/20 05:41:17;;;;;;;;;;;;;;;;;;4959985;28;1915;-70
2022/12/20 05:43:47;;;;;;;;;;;;;;;;;;4934574;29;1588;-70
2022/12/20 05:46:14;;;;;;;;;;;;;;;;;;4946900;29;1538;-71
2022/12/20 05:48:51;;;;;;;;;;;;;;;;;;4945224;28;1828;-71
2022/12/20 05:51:19;;;;;;;;;;;;;;;;;;4943377;29;1250;-69
2022/12/20 05:54:09;;;;;;;;;;;;;;;;;;4934489;29;1128;-71
2022/12/20 05:56:47;;;;;;;;;;;;;;;;;;4936358;29;1470;-70
2022/12/20 05:59:16;;;;;;;;;;;;;;;;;;4936142;29;1360;-71
2022/12/20 06:01:43;;;;;;;;;;;;;;;;;;4943284;28;1900;-71
2022/12/20 06:04:09;;;;;;;;;;;;;;;;;;4954880;28;1081;-71
2022/12/20 06:06:37;;;;;;;;;;;;;;;;;;4955409;29;1413;-71
2022/12/20 06:09:03;;;;;;;;;;;;;;;;;;4971079;28;1364;-69
2022/12/20 06:11:39;;;;;;;;;;;;;;;;;;4955116;28;1521;-70
2022/12/20 06:14:09;;;;;;;;;;;;;;;;;;4955579;28;1209;-69
2022/12/20 06:16:38;;;;;;;;;;;;;;;;;;4973965;28;1441;-70
2022/12/20 06:19:06;;;;;;;;;;;;;;;;;;4960504;28;1310;-71
2022/12/20 06:21:33;;;;;;;;;;;;;;;;;;4974968;28;1974;-71
2022/12/20 06:24:03;;;;;;;;;;;;;;;;;;4954752;29;1425;-70
2022/12/20 06:26:34;;;;;;;;;;;;;;;;;;4954927;29;954;-71
2022/12/20 06:29:02;;;;;;;;;;;;;;;;;;4954313;28;1278;-70
2022/12/20 06:31:36;;;;;;;;;;;;;;;;;;4964299;28;1441;-70
2022/12/20 06:34:02;;;;;;;;;;;;;;;;;;4951906;28;1426;-70
2022/12/20 06:36:33;;;;;;;;;;;;;;;;;;4954754;28;1368;-70
2022/12/20 06:38:59;;;;;;;;;;;;;;;;;;4954480;28;1335;-71
2022/12/20 06:41:28;;;;;;;;;;;;;;;;;;4953956;29;1369;-71
2022/12/20 06:43:54;;;;;;;;;;;;;;;;;;4954564;29;1914;-71
2022/12/20 06:46:20;;;;;;;;;;;;;;;;;;4957413;28;1010;-71
2022/12/20 06:48:47;;;;;;;;;;;;;;;;;;4943873;28;1530;-70
2022/12/20 06:51:16;;;;;;;;;;;;;;;;;;4918263;29;1449;-71
2022/12/20 06:53:42;;;;;;;;;;;;;;;;;;4930509;29;1369;-70
2022/12/20 06:56:09;;;;;;;;;;;;;;;;;;4937259;29;1026;-71
2022/12/20 06:58:37;;;;;;;;;;;;;;;;;;4945440;29;1677;-73
2022/12/20 07:01:03;;;;;;;;;;;;;;;;;;4940982;28;1418;-73
2022/12/20 07:03:30;;;;;;;;;;;;;;;;;;4940198;29;1988;-72
2022/12/20 07:05:56;;;;;;;;;;;;;;;;;;4948413;28;1423;-73
2022/12/20 07:08:23;;;;;;;;;;;;;;;;;;4928857;29;1738;-73
2022/12/20 07:10:51;;;;;;;;;;;;;;;;;;4933517;29;1740;-72
2022/12/20 07:13:17;;;;;;;;;;;;;;;;;;4941308;29;1174;-73
2022/12/20 07:15:45;;;;;;;;;;;;;;;;;;4945339;28;1186;-73
2022/12/20 07:18:11;;;;;;;;;;;;;;;;;;4966438;28;1336;-71
2022/12/20 07:20:38;;;;;;;;;;;;;;;;;;4953580;28;1526;-71
2022/12/20 07:23:04;;;;;;;;;;;;;;;;;;4930834;29;1969;-73
2022/12/20 07:25:30;;;;;;;;;;;;;;;;;;4942497;29;1163;-73
2022/12/20 07:27:57;;;;;;;;;;;;;;;;;;4959407;28;1295;-72
2022/12/20 07:30:23;;;;;;;;;;;;;;;;;;4936870;29;1482;-71
2022/12/20 07:32:51;;;;;;;;;;;;;;;;;;4943280;29;1185;-71
2022/12/20 07:35:17;;;;;;;;;;;;;;;;;;4938941;29;1879;-69
2022/12/20 07:37:44;;;;;;;;;;;;;;;;;;4938966;28;1788;-71
2022/12/20 07:40:10;;;;;;;;;;;;;;;;;;4937248;29;1674;-70
2022/12/20 07:42:37;;;;;;;;;;;;;;;;;;4941050;29;1974;-73
2022/12/20 07:45:03;;;;;;;;;;;;;;;;;;4937081;29;1211;-70
2022/12/20 07:47:29;;;;;;;;;;;;;;;;;;4932776;29;1656;-75
2022/12/20 07:49:57;;;;;;;;;;;;;;;;;;4939314;28;1402;-72
2022/12/20 07:52:23;;;;;;;;;;;;;;;;;;4932606;29;1156;-73
2022/12/20 07:54:50;;;;;;;;;;;;;;;;;;4932857;29;1340;-73
2022/12/20 07:57:17;;;;;;;;;;;;;;;;;;4932617;29;1566;-72
2022/12/20 07:59:46;;;;;;;;;;;;;;;;;;4941374;29;1374;-73
2022/12/20 08:02:13;;;;;;;;;;;;;;;;;;4937577;29;1986;-72
2022/12/20 08:04:39;;;;;;;;;;;;;;;;;;4938669;29;1546;-72
2022/12/20 08:07:07;;;;;;;;;;;;;;;;;;4938283;29;1407;-73
2022/12/20 08:09:35;;;;;;;;;;;;;;;;;;4946380;28;1282;-73
2022/12/20 08:12:01;;;;;;;;;;;;;;;;;;4951240;28;1085;-73
2022/12/20 08:14:27;;;;;;;;;;;;;;;;;;4933104;29;1775;-73
2022/12/20 08:16:53;;;;;;;;;;;;;;;;;;4941748;29;1223;-73
2022/12/20 08:19:20;;;;;;;;;;;;;;;;;;4941543;28;1446;-72
2022/12/20 08:21:46;;;;;;;;;;;;;;;;;;4929047;29;1245;-70
2022/12/20 08:24:14;;;;;;;;;;;;;;;;;;4941331;28;1980;-72
2022/12/20 08:26:40;;;;;;;;;;;;;;;;;;4934480;29;1476;-72
2022/12/20 08:29:07;;;;;;;;;;;;;;;;;;4938071;29;1593;-72
2022/12/20 08:31:33;;;;;;;;;;;;;;;;;;4938426;29;1664;-71
2022/12/20 08:34:00;;;;;;;;;;;;;;;;;;4944979;28;1174;-74
2022/12/20 08:36:26;;;;;;;;;;;;;;;;;;4938303;29;1162;-71
2022/12/20 08:38:52;;;;;;;;;;;;;;;;;;4945946;29;1816;-72
2022/12/20 08:41:20;;;;;;;;;;;;;;;;;;4961501;28;1443;-71
2022/12/20 08:43:47;;;;;;;;;;;;;;;;;;4960193;28;1990;-74
2022/12/20 08:46:13;;;;;;;;;;;;;;;;;;4938844;29;1552;-74
2022/12/20 08:48:39;;;;;;;;;;;;;;;;;;4948457;29;1450;-74
2022/12/20 08:51:06;;;;;;;;;;;;;;;;;;4949353;29;1065;-73
2022/12/20 08:53:33;;;;;;;;;;;;;;;;;;4956657;29;1062;-70
2022/12/20 08:56:03;;;;;;;;;;;;;;;;;;4967198;28;1526;-73
2022/12/20 08:58:31;;;;;;;;;;;;;;;;;;4937730;29;1561;-74
2022/12/20 09:00:59;;;;;;;;;;;;;;;;;;4938521;29;1436;-72
2022/12/20 09:03:25;;;;;;;;;;;;;;;;;;4937414;29;1985;-73
2022/12/20 09:05:51;;;;;;;;;;;;;;;;;;4954506;28;1625;-73
2022/12/20 09:08:18;;;;;;;;;;;;;;;;;;4944348;28;1382;-72
2022/12/20 09:10:44;;;;;;;;;;;;;;;;;;4939713;29;1808;-73
2022/12/20 09:13:10;;;;;;;;;;;;;;;;;;4949437;29;1148;-74
2022/12/20 09:15:38;;;;;;;;;;;;;;;;;;4952038;29;1759;-74
2022/12/20 09:18:05;;;;;;;;;;;;;;;;;;4944211;29;1463;-74
2022/12/20 09:20:31;;;;;;;;;;;;;;;;;;4960792;28;1495;-74
2022/12/20 09:22:58;;;;;;;;;;;;;;;;;;4941322;28;1918;-74
2022/12/20 09:25:24;;;;;;;;;;;;;;;;;;4936838;29;1876;-73
2022/12/20 09:27:50;;;;;;;;;;;;;;;;;;4936480;29;1464;-73
2022/12/20 09:30:17;;;;;;;;;;;;;;;;;;4948269;29;1154;-73
2022/12/20 09:32:45;;;;;;;;;;;;;;;;;;4945395;29;1421;-71
2022/12/20 09:35:11;;;;;;;;;;;;;;;;;;4934880;29;1773;-71
2022/12/20 09:37:37;;;;;;;;;;;;;;;;;;4935586;29;1839;-70
2022/12/20 09:40:04;;;;;;;;;;;;;;;;;;4939377;29;1349;-70
2022/12/20 09:42:31;;;;;;;;;;;;;;;;;;4954552;29;1911;-70
2022/12/20 09:44:59;;;;;;;;;;;;;;;;;;4933656;29;1475;-70
2022/12/20 09:47:25;;;;;;;;;;;;;;;;;;4929607;29;1530;-71
2022/12/20 09:49:54;;;;;;;;;;;;;;;;;;4947415;28;1498;-70
2022/12/20 09:52:38;;;;;;;;;;;;;;;;;;4957191;28;1462;-72
2022/12/20 09:55:08;;;;;;;;;;;;;;;;;;4923653;29;1521;-72
2022/12/20 09:57:38;;;;;;;;;;;;;;;;;;4932639;29;1628;-72
2022/12/20 10:00:08;;;;;;;;;;;;;;;;;;4931206;29;1299;-73
2022/12/20 10:02:35;;;;;;;;;;;;;;;;;;4931111;29;1911;-73
2022/12/20 10:05:03;;;;;;;;;;;;;;;;;;4930194;29;1544;-72
2022/12/20 10:07:33;;;;;;;;;;;;;;;;;;4931236;29;1289;-73
2022/12/20 10:10:07;;;;;;;;;;;;;;;;;;4937296;29;1508;-73
2022/12/20 10:12:37;;;;;;;;;;;;;;;;;;4933787;29;1820;-70
2022/12/20 10:15:10;;;;;;;;;;;;;;;;;;4960283;28;1483;-69
2022/12/20 10:17:41;;;;;;;;;;;;;;;;;;4929118;29;1590;-70
2022/12/20 10:20:13;;;;;;;;;;;;;;;;;;4942741;29;1643;-71
2022/12/20 10:22:40;;;;;;;;;;;;;;;;;;4943222;29;1561;-72
2022/12/20 10:25:13;;;;;;;;;;;;;;;;;;4935536;29;1601;-72
2022/12/20 10:27:40;;;;;;;;;;;;;;;;;;4943211;29;1921;-72
2022/12/20 10:30:11;;;;;;;;;;;;;;;;;;4944386;29;1199;-73
2022/12/20 10:32:37;;;;;;;;;;;;;;;;;;4936742;29;1442;-71
2022/12/20 10:35:16;;;;;;;;;;;;;;;;;;4946304;28;1577;-69
2022/12/20 10:37:43;;;;;;;;;;;;;;;;;;4956781;28;1529;-71
2022/12/20 10:40:12;;;;;;;;;;;;;;;;;;4943157;29;1547;-72
2022/12/20 10:42:39;;;;;;;;;;;;;;;;;;4933725;29;1878;-72
2022/12/20 10:45:06;;;;;;;;;;;;;;;;;;4931237;29;1907;-73
2022/12/20 10:47:36;;;;;;;;;;;;;;;;;;4938764;29;1500;-70
2022/12/20 10:50:18;;;;;;;;;;;;;;;;;;4956841;28;1528;-70
2022/12/20 10:52:45;;;;;;;;;;;;;;;;;;4936001;29;1851;-71
2022/12/20 10:55:38;;;;;;;;;;;;;;;;;;4962902;28;1493;-72
2022/12/20 10:58:05;;;;;;;;;;;;;;;;;;4892649;29;1853;-72
2022/12/20 11:00:32;;;;;;;;;;;;;;;;;;4950657;28;1292;-72
2022/12/20 11:03:07;;;;;;;;;;;;;;;;;;4941549;28;1918;-73
2022/12/20 11:05:35;;;;;;;;;;;;;;;;;;4932591;29;1455;-73
2022/12/20 11:08:07;;;;;;;;;;;;;;;;;;4936710;28;1401;-73
2022/12/20 11:10:33;;;;;;;;;;;;;;;;;;4934782;29;1553;-72
2022/12/20 11:13:00;;;;;;;;;;;;;;;;;;4931263;29;1704;-72
2022/12/20 11:15:28;;;;;;;;;;;;;;;;;;4960659;28;1834;-71
2022/12/20 11:17:55;;;;;;;;;;;;;;;;;;4938772;29;1791;-70
2022/12/20 11:20:24;;;;;;;;;;;;;;;;;;4960451;28;1438;-70
2022/12/20 11:22:55;;;;;;;;;;;;;;;;;;4963100;28;1641;-70
2022/12/20 11:25:25;;;;;;;;;;;;;;;;;;4936998;29;1979;-72
2022/12/20 11:27:54;;;;;;;;;;;;;;;;;;4958879;28;1406;-71
2022/12/20 11:30:21;;;;;;;;;;;;;;;;;;4933108;29;1586;-72
2022/12/20 11:33:06;;;;;;;;;;;;;;;;;;4947075;28;2049;-72
2022/12/20 11:35:36;;;;;;;;;;;;;;;;;;4950874;28;1772;-71
2022/12/20 11:38:06;;;;;;;;;;;;;;;;;;4948259;28;1416;-70
2022/12/20 11:40:32;;;;;;;;;;;;;;;;;;4954467;28;1775;-72
2022/12/20 11:43:02;;;;;;;;;;;;;;;;;;4960553;28;1383;-73
2022/12/20 11:45:30;;;;;;;;;;;;;;;;;;4960511;28;1963;-71
2022/12/20 11:48:19;;;;;;;;;;;;;;;;;;4929606;29;1580;-71
2022/12/20 11:50:49;;;;;;;;;;;;;;;;;;4932045;29;1797;-69
2022/12/20 11:53:18;;;;;;;;;;;;;;;;;;4941825;29;1247;-72
2022/12/20 11:55:45;;;;;;;;;;;;;;;;;;4934239;29;1853;-73
2022/12/20 11:58:12;;;;;;;;;;;;;;;;;;4944671;28;1425;-73
2022/12/20 12:00:39;;;;;;;;;;;;;;;;;;4954583;28;1397;-72
2022/12/20 12:03:10;;;;;;;;;;;;;;;;;;4968819;28;1258;-72
2022/12/20 12:05:44;;;;;;;;;;;;;;;;;;4963277;28;2362;-70
2022/12/20 12:08:13;;;;;;;;;;;;;;;;;;4955074;29;1468;-71
2022/12/20 12:10:41;;;;;;;;;;;;;;;;;;4945820;29;1198;-72
2022/12/20 12:13:12;;;;;;;;;;;;;;;;;;4958133;28;1660;-72
2022/12/20 12:15:40;;;;;;;;;;;;;;;;;;4940183;29;1167;-71
2022/12/20 12:18:07;;;;;;;;;;;;;;;;;;4955814;28;1400;-71
2022/12/20 12:20:35;;;;;;;;;;;;;;;;;;4956319;28;1138;-72
2022/12/20 12:23:02;;;;;;;;;;;;;;;;;;4955412;28;1244;-71
2022/12/20 12:25:29;;;;;;;;;;;;;;;;;;4939984;29;1915;-71
2022/12/20 12:27:56;;;;;;;;;;;;;;;;;;4937769;29;1255;-69
2022/12/20 12:30:23;;;;;;;;;;;;;;;;;;4971213;28;1467;-71
2022/12/20 12:32:50;;;;;;;;;;;;;;;;;;4950295;28;1182;-71
2022/12/20 12:35:36;;;;;;;;;;;;;;;;;;4951645;28;1345;-72
2022/12/20 12:38:17;;;;;;;;;;;;;;;;;;4962826;28;1581;-73
2022/12/20 12:41:01;;;;;;;;;;;;;;;;;;4957832;28;1334;-72
2022/12/20 12:43:44;;;;;;;;;;;;;;;;;;4940806;28;1919;-73
2022/12/20 12:46:11;;;;;;;;;;;;;;;;;;4947363;28;1425;-73
2022/12/20 12:48:39;;;;;;;;;;;;;;;;;;4964924;28;1466;-73
2022/12/20 12:51:05;;;;;;;;;;;;;;;;;;4958132;28;1198;-71
2022/12/20 12:53:32;;;;;;;;;;;;;;;;;;4950280;28;1486;-69
2022/12/20 12:55:59;;;;;;;;;;;;;;;;;;4946603;29;1394;-71
2022/12/20 12:58:34;;;;;;;;;;;;;;;;;;4956185;28;1661;-71
2022/12/20 13:01:04;;;;;;;;;;;;;;;;;;4964360;28;1511;-71
2022/12/20 13:03:44;;;;;;;;;;;;;;;;;;4955122;28;1502;-73
2022/12/20 13:06:30;;;;;;;;;;;;;;;;;;4947092;29;1653;-70
2022/12/20 13:09:09;;;;;;;;;;;;;;;;;;4953496;28;1504;-70
2022/12/20 13:11:36;;;;;;;;;;;;;;;;;;4943736;29;1432;-72
2022/12/20 13:14:11;;;;;;;;;;;;;;;;;;4943855;29;1435;-73
2022/12/20 13:16:40;;;;;;;;;;;;;;;;;;4954348;28;1573;-73
2022/12/20 13:19:13;;;;;;;;;;;;;;;;;;4962821;28;1535;-73
2022/12/20 13:21:39;;;;;;;;;;;;;;;;;;4956490;28;1432;-75
2022/12/20 13:24:36;;;;;;;;;;;;;;;;;;4947635;29;1918;-74
2022/12/20 13:27:03;;;;;;;;;;;;;;;;;;4942522;28;1590;-73
2022/12/20 13:29:32;;;;;;;;;;;;;;;;;;4953661;28;1422;-73
2022/12/20 13:32:00;;;;;;;;;;;;;;;;;;4951067;28;1395;-74
2022/12/20 13:34:37;;;;;;;;;;;;;;;;;;4956483;28;1439;-72
2022/12/20 13:37:03;;;;;;;;;;;;;;;;;;4941445;29;1414;-74
2022/12/20 13:39:32;;;;;;;;;;;;;;;;;;4936562;29;1539;-74
2022/12/20 13:42:07;;;;;;;;;;;;;;;;;;4939729;29;1627;-73
2022/12/20 13:44:35;;;;;;;;;;;;;;;;;;4952596;28;2001;-73
2022/12/20 13:47:06;;;;;;;;;;;;;;;;;;4944429;29;1539;-72
2022/12/20 13:49:34;;;;;;;;;;;;;;;;;;4962083;28;1466;-74
2022/12/20 13:52:07;;;;;;;;;;;;;;;;;;4953095;28;1474;-75
2022/12/20 13:54:34;;;;;;;;;;;;;;;;;;4949940;28;1514;-70
2022/12/20 13:57:00;;;;;;;;;;;;;;;;;;4935029;29;1498;-72
2022/12/20 13:59:28;;;;;;;;;;;;;;;;;;4933444;29;1820;-74
2022/12/20 14:01:55;;;;;;;;;;;;;;;;;;4932892;29;1568;-71
2022/12/20 14:04:22;;;;;;;;;;;;;;;;;;4935635;29;1907;-71
2022/12/20 14:06:52;;;;;;;;;;;;;;;;;;4942236;29;1618;-71
2022/12/20 14:09:28;;;;;;;;;;;;;;;;;;4937492;29;1602;-72
2022/12/20 14:11:54;;;;;;;;;;;;;;;;;;4957967;28;1624;-72
2022/12/20 14:14:20;;;;;;;;;;;;;;;;;;4957437;28;1751;-73
2022/12/20 14:16:47;;;;;;;;;;;;;;;;;;4934577;29;2115;-74
2022/12/20 14:19:13;;;;;;;;;;;;;;;;;;4941983;29;1372;-74
2022/12/20 14:21:42;;;;;;;;;;;;;;;;;;4970211;28;1141;-75
2022/12/20 14:24:08;;;;;;;;;;;;;;;;;;4956761;28;1915;-75
2022/12/20 14:26:36;;;;;;;;;;;;;;;;;;4935936;29;1057;-74
2022/12/20 14:29:04;;;;;;;;;;;;;;;;;;4934902;29;1301;-74
2022/12/20 14:31:34;;;;;;;;;;;;;;;;;;4935948;29;1561;-75
2022/12/20 14:34:01;;;;;;;;;;;;;;;;;;4942883;29;1181;-72
2022/12/20 14:36:29;;;;;;;;;;;;;;;;;;4958056;28;1490;-73
2022/12/20 14:38:57;;;;;;;;;;;;;;;;;;4938745;29;1483;-71
2022/12/20 14:41:30;;;;;;;;;;;;;;;;;;4946876;29;1834;-73
2022/12/20 14:43:57;;;;;;;;;;;;;;;;;;4952412;28;1804;-71
2022/12/20 14:46:23;;;;;;;;;;;;;;;;;;4935350;29;1986;-74
2022/12/20 14:48:49;;;;;;;;;;;;;;;;;;4934039;29;1637;-73
2022/12/20 14:51:20;;;;;;;;;;;;;;;;;;4941629;28;1618;-74
2022/12/20 14:53:46;;;;;;;;;;;;;;;;;;4922744;29;1534;-73
2022/12/20 14:56:15;;;;;;;;;;;;;;;;;;4937328;29;1574;-74
2022/12/20 14:58:41;;;;;;;;;;;;;;;;;;4947521;29;1315;-74
2022/12/20 15:01:17;;;;;;;;;;;;;;;;;;4951859;28;1751;-73
2022/12/20 15:03:48;;;;;;;;;;;;;;;;;;4935887;29;1589;-74
2022/12/20 15:06:28;;;;;;;;;;;;;;;;;;4945250;28;2416;-73
2022/12/20 15:08:55;;;;;;;;;;;;;;;;;;4939789;28;1637;-71
2022/12/20 15:11:23;;;;;;;;;;;;;;;;;;4935826;29;1850;-71
2022/12/20 15:13:51;;;;;;;;;;;;;;;;;;4942393;29;1640;-75
2022/12/20 15:16:18;;;;;;;;;;;;;;;;;;4961659;28;1227;-74
2022/12/20 15:18:45;;;;;;;;;;;;;;;;;;4955005;28;1318;-74
2022/12/20 15:21:12;;;;;;;;;;;;;;;;;;4936244;29;1812;-73
2022/12/20 15:23:39;;;;;;;;;;;;;;;;;;4946653;29;1628;-75
2022/12/20 15:26:05;;;;;;;;;;;;;;;;;;4946194;29;1896;-74
2022/12/20 15:28:33;;;;;;;;;;;;;;;;;;4942447;29;1277;-74
2022/12/20 15:30:59;;;;;;;;;;;;;;;;;;4943359;29;1478;-74
2022/12/20 15:33:25;;;;;;;;;;;;;;;;;;4946840;29;1101;-74
2022/12/20 15:35:52;;;;;;;;;;;;;;;;;;4945472;29;1866;-74
2022/12/20 15:38:19;;;;;;;;;;;;;;;;;;4933699;29;1640;-74
2022/12/20 15:40:45;;;;;;;;;;;;;;;;;;4943385;28;1605;-74
2022/12/20 15:43:12;;;;;;;;;;;;;;;;;;4952743;28;1231;-74
2022/12/20 15:45:40;;;;;;;;;;;;;;;;;;4948574;29;1911;-73
2022/12/20 15:48:09;;;;;;;;;;;;;;;;;;4944515;28;1417;-72
2022/12/20 15:50:42;;;;;;;;;;;;;;;;;;4940786;28;916;-75
2022/12/20 15:53:09;;;;;;;;;;;;;;;;;;4934174;29;1598;-74
2022/12/20 15:55:35;;;;;;;;;;;;;;;;;;4946768;29;1167;-74
2022/12/20 15:58:01;;;;;;;;;;;;;;;;;;4954481;28;1382;-74
2022/12/20 16:00:27;;;;;;;;;;;;;;;;;;4954149;28;1058;-75
2022/12/20 16:02:56;;;;;;;;;;;;;;;;;;4934371;29;1806;-74
2022/12/20 16:05:22;;;;;;;;;;;;;;;;;;4940040;29;1978;-74
2022/12/20 16:07:48;;;;;;;;;;;;;;;;;;4935267;29;1403;-74
2022/12/20 16:10:15;;;;;;;;;;;;;;;;;;4935060;29;911;-75
2022/12/20 16:12:41;;;;;;;;;;;;;;;;;;4932455;29;1836;-75
2022/12/20 16:15:09;;;;;;;;;;;;;;;;;;4945021;29;1391;-75
2022/12/20 16:17:35;;;;;;;;;;;;;;;;;;4949151;28;1227;-75
2022/12/20 16:20:03;;;;;;;;;;;;;;;;;;4956739;28;1302;-75
2022/12/20 16:22:30;;;;;;;;;;;;;;;;;;4952146;28;1155;-74
2022/12/20 16:24:56;;;;;;;;;;;;;;;;;;4945536;29;1911;-75
2022/12/20 16:27:23;;;;;;;;;;;;;;;;;;4937048;29;1061;-74
2022/12/20 16:29:49;;;;;;;;;;;;;;;;;;4939910;29;1838;-72
2022/12/20 16:32:15;;;;;;;;;;;;;;;;;;4942291;29;933;-74
2022/12/20 16:34:42;;;;;;;;;;;;;;;;;;4934621;29;1693;-72
2022/12/20 16:37:10;;;;;;;;;;;;;;;;;;4940518;28;1680;-75
2022/12/20 16:39:36;;;;;;;;;;;;;;;;;;4933157;29;1711;-75
2022/12/20 16:42:02;;;;;;;;;;;;;;;;;;4943134;29;1559;-75
2022/12/20 16:44:29;;;;;;;;;;;;;;;;;;4942517;28;1627;-72
2022/12/20 16:46:55;;;;;;;;;;;;;;;;;;4942009;29;1914;-74
2022/12/20 16:49:21;;;;;;;;;;;;;;;;;;4932149;29;1801;-73
2022/12/20 16:51:48;;;;;;;;;;;;;;;;;;4941893;28;1222;-72
2022/12/20 16:54:16;;;;;;;;;;;;;;;;;;4938696;29;1038;-73
2022/12/20 16:56:43;;;;;;;;;;;;;;;;;;4938817;29;773;-74
2022/12/20 16:59:09;;;;;;;;;;;;;;;;;;4946114;28;1319;-72
2022/12/20 17:01:36;;;;;;;;;;;;;;;;;;4931682;29;1454;-71
2022/12/20 17:04:02;;;;;;;;;;;;;;;;;;4932689;29;1233;-72
2022/12/20 17:06:30;;;;;;;;;;;;;;;;;;4853701;29;1912;-75
2022/12/20 17:09:18;;;;;;;;;;;;;;;;;;4860427;28;1661;-74
2022/12/20 17:11:51;;;;;;;;;;;;;;;;;;4849791;29;1323;-75
2022/12/20 17:14:22;;;;;;;;;;;;;;;;;;4884908;29;946;-76
2022/12/20 17:16:50;;;;;;;;;;;;;;;;;;4907198;28;1163;-74
2022/12/20 17:19:18;;;;;;;;;;;;;;;;;;4881203;28;1515;-74
2022/12/20 17:21:45;;;;;;;;;;;;;;;;;;4841580;29;1467;-76
2022/12/20 17:24:14;;;;;;;;;;;;;;;;;;4834889;29;1094;-74